Aviation Digital Data Service (ADDS)

Output produced by METARs form (0032 UTC 24 May 2022)
found at http://www.aviationweather.gov/metar/data/
 
EKYT 240020Z AUTO 11019KT 9999 FEW130/// BKN190/// 13/09 Q1000
TAF EKYT 232308Z 2400/2424 12015KT 9999 BKN100 
     TEMPO 2400/2404 12015G28KT 
     BECMG 2404/2407 12018G32KT 
     BECMG 2407/2409 13015G28KT 3000 RA BKN008 FEW060CB 
     BECMG 2409/2411 21012G22KT 6000 -SHRA BKN012 FEW060CB 
     BECMG 2411/2414 21012KT 9999 NSW BKN015 
     TEMPO 2416/2424 20012G22KT -SHRA BKN012 SCT020CB
       
EKAH 240020Z AUTO 11015KT 9999 SCT230/// 13/09 Q1000
TAF EKAH 232304Z 2400/2424 11015KT CAVOK 
     TEMPO 2400/2405 12015G30KT 
     BECMG 2405/2408 13015G28KT 3000 RA BKN005 BKN040CB 
     BECMG 2408/2411 20010KT 9999 NSW BKN020 
     TEMPO 2411/2414 BKN012 
     TEMPO 2414/2421 SCT025CB
       
EKBI 240020Z AUTO 10012KT 9999 BKN140/// 13/09 Q0997
TAF EKBI 232304Z 2400/2424 10015KT CAVOK 
     TEMPO 2400/2402 14015G25KT 
     BECMG 2402/2405 13015G28KT 4000 RA BKN010 BKN040CB 
     TEMPO 2405/2409 2500 BR BKN004 
     BECMG 2405/2407 22012KT 
     BECMG 2409/2412 9999 NSW BKN020 
     TEMPO 2412/2418 BKN012 SCT020CB 
     TEMPO 2418/2422 SCT020CB
       
EKRN 240020Z AUTO 11016KT 9999 NCD 14/06 Q1005
TAF EKRN 232308Z 2400/2409 10015KT 9999 FEW120 
     TEMPO 2400/2407 12020G35KT 
     BECMG 2407/2409 15015G25KT 3000 RA BKN006 FEW060CB
       
EKEB 240020Z AUTO 12015KT 9999 -RA BKN055/// BKN092/// 15/11 Q0995
TAF EKEB 231425Z 2315/2321 11015KT CAVOK 
     TEMPO 2315/2319 12015G26KT
       
EKKA 240020Z AUTO 10014KT 9999 OVC120/// 13/08 Q0997
TAF EKKA 232309Z 2400/2424 12012KT 9999 FEW120 BKN180 
     TEMPO 2400/2403 12015G25KT 
     BECMG 2403/2405 13015G25KT 3000 RA BR BKN006 SCT060CB 
     BECMG 2405/2408 21012G22KT 6000 -SHRA BKN012 SCT060CB 
     BECMG 2408/2411 21012KT 9999 NSW BKN015 
     TEMPO 2411/2424 20010G20KT -SHRA BKN012 SCT020CB
       
EKCH 240020Z AUTO 12016KT 9999 NCD 13/09 Q1002 NOSIG
TAF EKCH 232304Z 2400/2424 11015KT CAVOK 
     TEMPO 2400/2404 10018G28KT 
     BECMG 2404/2407 13020G34KT 
     BECMG 2407/2410 14015KT 4000 RA BKN008 BKN060CB 
     BECMG 2410/2413 21010KT 9999 NSW SCT020 
     TEMPO 2415/2420 SCT025CB
       
EKVD 240020Z AUTO 13014KT //// ///////// 15/10 Q0997
EKRK 240020Z AUTO 11016KT 9999 NCD 13/09 Q1001
TAF EKRK 232304Z 2400/2409 11016KT CAVOK 
     TEMPO 2400/2401 12018G28KT 
     BECMG 2401/2404 13018G32KT 
     BECMG 2406/2408 14010KT 4000 RA BKN006 BKN060CB
       
EKSP 240020Z 13013G23KT 100V160 8000 -RA BKN027 BKN040 13/11 Q0996
TAF EKSP 232309Z 2400/2424 12015KT 9999 BKN120 
     BECMG 2400/2403 12015G25KT 5000 RA BKN010 SCT060CB 
     BECMG 2403/2405 22012G25KT 2500 BR BKN005 
     TEMPO 2405/2407 6000 -RA BKN010 
     BECMG 2407/2409 23012KT 9999 NSW SCT012 SCT030 
     TEMPO 2409/2424 23012G22KT -SHRA BKN012 SCT020CB
       
EKSB 240020Z AUTO 13014KT 5000 +RA OVC034/// 14/12 Q0997